| time (UTC) | temp F | wind direction | speed MPH | gust MPH | rain 1hr in | rain 24hr in | rain mn in | humidity % | barometer mb |
| 20260508173034 | 62 | 265 | 2.0 | 8.0 | 0.00 | 0.00 | 0.00 | 51 | 1019.9 |
| 20260508171535 | 62 | 268 | 5.0 | 15.0 | 0.00 | 0.00 | 0.00 | 51 | 1019.8 |
| 20260508170035 | 62 | 263 | 6.0 | 15.0 | 0.00 | 0.00 | 0.00 | 52 | 1019.7 |
| 20260508164530 | 62 | 250 | 7.0 | 14.0 | 0.00 | 0.00 | 0.00 | 52 | 1019.7 |
| 20260508163032 | 62 | 255 | 9.0 | 15.0 | 0.00 | 0.00 | 0.00 | 54 | 1019.9 |
| 20260508161535 | 62 | 266 | 9.0 | 21.0 | 0.00 | 0.00 | 0.00 | 54 | 1019.9 |
| 20260508160035 | 62 | 266 | 8.0 | 17.0 | 0.00 | 0.00 | 0.00 | 56 | 1019.9 |
| 20260508154534 | 61 | 271 | 2.0 | 13.0 | 0.00 | 0.00 | 0.00 | 62 | 1020.0 |
| 20260508153030 | 57 | 303 | 1.0 | 6.0 | 0.00 | 0.00 | 0.00 | 64 | 1020.0 |
| 20260508151533 | 54 | 305 | 0.0 | 4.0 | 0.00 | 0.00 | 0.00 | 67 | 1019.9 |
| 20260508150035 | 54 | 111 | 1.0 | 5.0 | 0.00 | 0.00 | 0.00 | 67 | 1019.8 |
| 20260508144530 | 53 | 115 | 3.0 | 7.0 | 0.00 | 0.00 | 0.00 | 68 | 1019.5 |
| 20260508143110 | 53 | 107 | 1.0 | 5.0 | 0.00 | 0.00 | 0.00 | 72 | 1019.3 |
| 20260508141535 | 52 | 149 | 0.0 | 2.0 | 0.00 | 0.00 | 0.00 | 71 | 1019.2 |
| 20260508140037 | 52 | 312 | 1.0 | 4.0 | 0.00 | 0.00 | 0.00 | 71 | 1019.1 |
| 20260508134530 | 51 | 295 | 1.0 | 9.0 | 0.00 | 0.00 | 0.00 | 71 | 1019.0 |
| 20260508133030 | 49 | 299 | 3.0 | 9.0 | 0.00 | 0.00 | 0.00 | 73 | 1018.7 |
| 20260508131607 | 47 | 307 | 2.0 | 5.0 | 0.00 | 0.00 | 0.00 | 75 | 1018.6 |
| 20260508130031 | 47 | 324 | 1.0 | 5.0 | 0.00 | 0.00 | 0.00 | 74 | 1018.6 |
| 20260508124534 | 48 | 360 | 0.0 | 2.0 | 0.00 | 0.00 | 0.00 | 71 | 1018.5 |
| 20260508123037 | 49 | 318 | 0.0 | 3.0 | 0.00 | 0.00 | 0.00 | 69 | 1018.4 |
| 20260508121529 | 47 | 334 | 1.0 | 7.0 | 0.00 | 0.00 | 0.00 | 72 | 1018.4 |
| 20260508120032 | 47 | 308 | 0.0 | 1.0 | 0.00 | 0.00 | 0.00 | 72 | 1018.5 |
| 20260508114532 | 47 | 35 | 0.0 | 4.0 | 0.00 | 0.00 | 0.00 | 70 | 1018.4 |
| 20260508113036 | 49 | 95 | 0.0 | 0.0 | 0.00 | 0.00 | 0.00 | 66 | 1018.3 |
| 20260508111537 | 50 | 291 | 0.0 | 3.0 | 0.00 | 0.00 | 0.00 | 63 | 1018.2 |
| 20260508110032 | 49 | 285 | 0.0 | 5.0 | 0.00 | 0.00 | 0.00 | 65 | 1018.1 |
| 20260508104528 | 49 | 275 | 0.0 | 7.0 | 0.00 | 0.00 | 0.00 | 65 | 1018.0 |
| 20260508103036 | 51 | 250 | 0.0 | 2.0 | 0.00 | 0.00 | 0.00 | 62 | 1018.1 |
| 20260508094536 | 49 | 246 | 0.0 | 8.0 | 0.00 | 0.00 | 0.00 | 67 | 1018.0 |
| 20260508093034 | 49 | 213 | 0.0 | 4.0 | 0.00 | 0.00 | 0.00 | 68 | 1017.9 |
| 20260508091536 | 49 | 145 | 1.0 | 7.0 | 0.00 | 0.00 | 0.00 | 66 | 1017.9 |
| 20260508090040 | 49 | 136 | 0.0 | 3.0 | 0.00 | 0.00 | 0.00 | 64 | 1017.9 |
| 20260508084537 | 50 | 134 | 0.0 | 3.0 | 0.00 | 0.00 | 0.00 | 62 | 1017.8 |
| 20260508083034 | 52 | 101 | 0.0 | 2.0 | 0.00 | 0.00 | 0.00 | 58 | 1017.8 |
| 20260508081531 | 55 | 110 | 0.0 | 5.0 | 0.00 | 0.00 | 0.00 | 52 | 1017.8 |
| 20260508080037 | 57 | 312 | 0.0 | 4.0 | 0.00 | 0.00 | 0.00 | 48 | 1017.7 |
| 20260508074536 | 57 | 289 | 4.0 | 12.0 | 0.00 | 0.00 | 0.00 | 48 | 1017.7 |
| 20260508073142 | 57 | 283 | 5.0 | 12.0 | 0.00 | 0.00 | 0.00 | 49 | 1017.6 |
| 20260508070035 | 58 | 222 | 1.0 | 7.0 | 0.00 | 0.00 | 0.00 | 45 | 1017.6 |
| 20260508064653 | 58 | 278 | 4.0 | 9.0 | 0.00 | 0.00 | 0.00 | 45 | 1017.5 |
| 20260508063036 | 58 | 293 | 5.0 | 10.0 | 0.00 | 0.00 | 0.00 | 44 | 1017.5 |
| 20260508061531 | 59 | 317 | 4.0 | 9.0 | 0.00 | 0.00 | 0.00 | 42 | 1017.5 |
| 20260508060031 | 60 | 337 | 5.0 | 9.0 | 0.00 | 0.00 | 0.00 | 40 | 1017.5 |
| 20260508054645 | 60 | 343 | 4.0 | 10.0 | 0.00 | 0.00 | 0.00 | 39 | 1017.5 |
| 20260508053143 | 60 | 333 | 5.0 | 9.0 | 0.00 | 0.00 | 0.00 | 37 | 1017.4 |
| 20260508051530 | 61 | 316 | 4.0 | 9.0 | 0.00 | 0.00 | 0.00 | 36 | 1017.4 |
| 20260508050032 | 62 | 311 | 5.0 | 9.0 | 0.00 | 0.00 | 0.00 | 35 | 1017.3 |
| 20260508044532 | 62 | 292 | 6.0 | 12.0 | 0.00 | 0.00 | 0.00 | 34 | 1017.2 |
| 20260508041530 | 62 | 271 | 3.0 | 12.0 | 0.00 | 0.00 | 0.00 | 32 | 1016.9 |
| 20260508040031 | 62 | 260 | 5.0 | 14.0 | 0.00 | 0.00 | 0.00 | 31 | 1016.7 |
| 20260508034642 | 62 | 265 | 5.0 | 12.0 | 0.00 | 0.00 | 0.00 | 30 | 1016.6 |
| 20260508033107 | 63 | 271 | 4.0 | 12.0 | 0.00 | 0.00 | 0.00 | 28 | 1016.5 |
| 20260508031532 | 64 | 279 | 6.0 | 14.0 | 0.00 | 0.00 | 0.00 | 27 | 1016.3 |
| 20260508030036 | 66 | 277 | 7.0 | 18.0 | 0.00 | 0.00 | 0.00 | 25 | 1016.0 |
| 20260508024607 | 67 | 275 | 9.0 | 21.0 | 0.00 | 0.00 | 0.00 | 25 | 1015.8 |
| 20260508021534 | 69 | 281 | 7.0 | 17.0 | 0.00 | 0.00 | 0.00 | 24 | 1015.7 |
| 20260508020034 | 69 | 285 | 8.0 | 19.0 | 0.00 | 0.00 | 0.00 | 24 | 1015.7 |
| 20260508014535 | 69 | 283 | 9.0 | 21.0 | 0.00 | 0.00 | 0.00 | 24 | 1015.7 |
| 20260508013107 | 68 | 288 | 7.0 | 16.0 | 0.00 | 0.00 | 0.00 | 24 | 1015.9 |
| 20260508010036 | 69 | 279 | 9.0 | 18.0 | 0.00 | 0.00 | 0.00 | 23 | 1016.1 |
| 20260508004607 | 71 | 274 | 9.0 | 19.0 | 0.00 | 0.00 | 0.00 | 23 | 1016.0 |
| 20260508003034 | 73 | 281 | 11.0 | 22.0 | 0.00 | 0.00 | 0.00 | 23 | 1015.9 |
| 20260508001607 | 73 | 288 | 8.0 | 17.0 | 0.00 | 0.00 | 0.00 | 24 | 1015.9 |
| 20260508000038 | 73 | 287 | 9.0 | 18.0 | 0.00 | 0.00 | 0.00 | 26 | 1015.8 |
| 20260507234535 | 72 | 275 | 7.0 | 21.0 | 0.00 | 0.00 | 0.00 | 26 | 1015.9 |
| 20260507233031 | 74 | 282 | 10.0 | 24.0 | 0.00 | 0.00 | 0.00 | 27 | 1015.8 |
| 20260507231610 | 75 | 271 | 7.0 | 18.0 | 0.00 | 0.00 | 0.00 | 27 | 1016.0 |
| 20260507230034 | 75 | 284 | 8.0 | 19.0 | 0.00 | 0.00 | 0.00 | 27 | 1016.0 |
| 20260507224535 | 75 | 273 | 8.0 | 19.0 | 0.00 | 0.00 | 0.00 | 27 | 1016.2 |
| 20260507223032 | 75 | 278 | 9.0 | 22.0 | 0.00 | 0.00 | 0.00 | 28 | 1016.2 |
| 20260507221535 | 75 | 273 | 9.0 | 22.0 | 0.00 | 0.00 | 0.00 | 30 | 1016.4 |
| 20260507220038 | 74 | 284 | 10.0 | 18.0 | 0.00 | 0.00 | 0.00 | 31 | 1016.6 |
| 20260507213036 | 74 | 301 | 10.0 | 19.0 | 0.00 | 0.00 | 0.00 | 33 | 1017.0 |
| 20260507204648 | 72 | 288 | 7.0 | 17.0 | 0.00 | 0.00 | 0.00 | 36 | 1017.4 |
| 20260507203142 | 71 | 296 | 8.0 | 16.0 | 0.00 | 0.00 | 0.00 | 36 | 1017.5 |
| 20260507194530 | 70 | 325 | 7.0 | 15.0 | 0.00 | 0.00 | 0.00 | 37 | 1017.9 |
| 20260507193031 | 72 | 336 | 7.0 | 14.0 | 0.00 | 0.00 | 0.00 | 36 | 1018.1 |
| 20260507191604 | 72 | 346 | 6.0 | 11.0 | 0.00 | 0.00 | 0.00 | 37 | 1018.4 |
| 20260507190115 | 71 | 322 | 7.0 | 14.0 | 0.00 | 0.00 | 0.00 | 41 | 1018.5 |
| 20260507184535 | 70 | 320 | 5.0 | 14.0 | 0.00 | 0.00 | 0.00 | 43 | 1018.7 |
| 20260507180032 | 67 | 303 | 6.0 | 14.0 | 0.00 | 0.00 | 0.00 | 47 | 1018.9 |